Global Endeavor — 3EOJ9 — position and weather

sailwx.info

Track history (hours):
 
Tides and Currents Weather Stations Pressure Air Temp Water Temp Dewpoint Dewpoint Depression Visibility Wind Speed Wind Dir Waves Ship Positions

Global Endeavor

Last reported at 2017-Oct-20 06:24 UTC. Time now 2017-Nov-19 18:07 UTC.
Position N 34°51' E 140°04'.
Warning: this ship's position is 30 days out of date.

Length 175 m; draft 6 m.

Type: Cargo ship. MMSI: 356619000.

Date/timePositionNaut miles runAvg speedWind from/ knotsBaromVisibWave heightAir tempDewpointWater temp
2017-Oct-20 06:24N 34°51' E 140°04'9 7.8
2017-Oct-20 05:14N 34°48' E 139°53'4 8.9
2017-Oct-20 04:45N 34°48' E 139°48'4 9.3
2017-Oct-20 04:20N 34°49' E 139°44'411.5
2017-Oct-20 04:00N 34°53' E 139°41'612.1
2017-Oct-20 03:30N 34°59' E 139°40'612.2
2017-Oct-20 03:00N 35°04' E 139°43'713.3
2017-Oct-20 02:30N 35°11' E 139°45'611.7
2017-Oct-20 02:00N 35°17' E 139°45'612.4
2017-Oct-20 01:30N 35°22' E 139°42'612.4
2017-Oct-20 01:00N 35°27' E 139°47'612.3
2017-Oct-20 00:30N 35°30' E 139°54'4 8.2
2017-Oct-20 00:00N 35°27' E 139°58'0 0.1
2017-Oct-19 20:51N 35°27' E 139°58'  
2017-Oct-16 00:15N 35°27' E 139°58'0 0.0
2017-Oct-15 22:46N 35°27' E 139°58'1 2.0
2017-Oct-15 22:30N 35°28' E 139°58'2 4.1
2017-Oct-15 22:00N 35°29' E 139°56'0 0.0
2017-Oct-15 11:49N 35°29' E 139°56'0 0.0
2017-Oct-15 11:28N 35°29' E 139°56'0 0.0
2017-Oct-15 10:46N 35°29' E 139°56'0 0.0
2017-Oct-15 08:22N 35°29' E 139°56'0 0.0
2017-Oct-15 07:52N 35°29' E 139°56'0 0.0
2017-Oct-15 07:25N 35°29' E 139°56'0 0.0
2017-Oct-15 03:43N 35°29' E 139°56'0 0.0
2017-Oct-15 03:13N 35°29' E 139°56'0 0.0
2017-Oct-15 02:54N 35°29' E 139°56'1 1.4
2017-Oct-15 02:21N 35°29' E 139°55'3 8.3
2017-Oct-15 01:59N 35°28' E 139°52'612.6
2017-Oct-15 01:30N 35°24' E 139°46'612.4
2017-Oct-15 01:00N 35°18' E 139°44'612.1
2017-Oct-15 00:30N 35°13' E 139°47'5 9.5
2017-Oct-15 00:00N 35°08' E 139°46'3 6.4
2017-Oct-14 23:30N 35°05' E 139°45'4 8.4
2017-Oct-14 23:00N 35°01' E 139°43'4 8.6
2017-Oct-14 22:30N 34°57' E 139°41'5 8.3
2017-Oct-14 21:56N 34°52' E 139°42'2 5.0
2017-Oct-14 21:30N 34°51' E 139°44'3 5.3
2017-Oct-14 20:57N 34°48' E 139°45'3 6.0
2017-Oct-14 20:30N 34°47' E 139°48'  
Track history (hours):
 
Tides and Currents Weather Stations Pressure Air Temp Water Temp Dewpoint Dewpoint Depression Visibility Wind Speed Wind Dir Waves Ship Positions

Global Endeavor

Last reported at 2017-Oct-20 06:24 UTC. Time now 2017-Nov-19 18:07 UTC.
Position N 34°51' E 140°04'.
Warning: this ship's position is 30 days out of date.

Length 175 m; draft 6 m.

Type: Cargo ship. MMSI: 356619000.

Date/timePositionNaut miles runAvg speedWind from/ knotsBaromVisibWave heightAir tempDewpointWater temp
2017-Oct-20 06:24N 34°51' E 140°04'9 7.8
2017-Oct-20 05:14N 34°48' E 139°53'4 8.9
2017-Oct-20 04:45N 34°48' E 139°48'4 9.3
2017-Oct-20 04:20N 34°49' E 139°44'411.5
2017-Oct-20 04:00N 34°53' E 139°41'612.1
2017-Oct-20 03:30N 34°59' E 139°40'612.2
2017-Oct-20 03:00N 35°04' E 139°43'713.3
2017-Oct-20 02:30N 35°11' E 139°45'611.7
2017-Oct-20 02:00N 35°17' E 139°45'612.4
2017-Oct-20 01:30N 35°22' E 139°42'612.4
2017-Oct-20 01:00N 35°27' E 139°47'612.3
2017-Oct-20 00:30N 35°30' E 139°54'4 8.2
2017-Oct-20 00:00N 35°27' E 139°58'0 0.1
2017-Oct-19 20:51N 35°27' E 139°58'  
2017-Oct-16 00:15N 35°27' E 139°58'0 0.0
2017-Oct-15 22:46N 35°27' E 139°58'1 2.0
2017-Oct-15 22:30N 35°28' E 139°58'2 4.1
2017-Oct-15 22:00N 35°29' E 139°56'0 0.0
2017-Oct-15 11:49N 35°29' E 139°56'0 0.0
2017-Oct-15 11:28N 35°29' E 139°56'0 0.0
2017-Oct-15 10:46N 35°29' E 139°56'0 0.0
2017-Oct-15 08:22N 35°29' E 139°56'0 0.0
2017-Oct-15 07:52N 35°29' E 139°56'0 0.0
2017-Oct-15 07:25N 35°29' E 139°56'0 0.0
2017-Oct-15 03:43N 35°29' E 139°56'0 0.0
2017-Oct-15 03:13N 35°29' E 139°56'0 0.0
2017-Oct-15 02:54N 35°29' E 139°56'1 1.4
2017-Oct-15 02:21N 35°29' E 139°55'3 8.3
2017-Oct-15 01:59N 35°28' E 139°52'612.6
2017-Oct-15 01:30N 35°24' E 139°46'612.4
2017-Oct-15 01:00N 35°18' E 139°44'612.1
2017-Oct-15 00:30N 35°13' E 139°47'5 9.5
2017-Oct-15 00:00N 35°08' E 139°46'3 6.4
2017-Oct-14 23:30N 35°05' E 139°45'4 8.4
2017-Oct-14 23:00N 35°01' E 139°43'4 8.6
2017-Oct-14 22:30N 34°57' E 139°41'5 8.3
2017-Oct-14 21:56N 34°52' E 139°42'2 5.0
2017-Oct-14 21:30N 34°51' E 139°44'3 5.3
2017-Oct-14 20:57N 34°48' E 139°45'3 6.0
2017-Oct-14 20:30N 34°47' E 139°48'  

Dump ship's entire track history